Terminal Aerodrome Forecast
Issued by NWS Newport/Morehead City, NC

Home | Current Version | Previous Version | Graphics & Text | Print | Product List | Glossary Off
Versions: 1 2 3 4 5 6 7 8 9 10 11 12

083
FTUS42 KMHX 231721
TAFEWN
TAF
KEWN 231721Z 2318/2418 04011KT P6SM VCSH OVC012
     FM240000 05009KT P6SM SHRA OVC010
     FM240600 05005KT 3SM SHRA SCT007 OVC030
     FM241300 11006KT 4SM SHRA OVC040=

USA.gov is the U.S. government's official web portal to all federal, state and local government web resources and services.